sensor_id;sensor_type;location;lat;lon;timestamp;temperature;humidity
25482;DHT22;13395;50.752;4.268;2023-01-26T00:03:33;1.80;99.90
25482;DHT22;13395;50.752;4.268;2023-01-26T00:06:07;1.80;99.90
25482;DHT22;13395;50.752;4.268;2023-01-26T00:08:41;1.80;99.90
25482;DHT22;13395;50.752;4.268;2023-01-26T00:11:09;1.70;99.90
25482;DHT22;13395;50.752;4.268;2023-01-26T00:13:35;1.70;99.90
25482;DHT22;13395;50.752;4.268;2023-01-26T00:16:01;1.80;99.90
25482;DHT22;13395;50.752;4.268;2023-01-26T00:18:28;1.90;99.90
25482;DHT22;13395;50.752;4.268;2023-01-26T00:20:55;1.70;99.90
25482;DHT22;13395;50.752;4.268;2023-01-26T00:23:21;1.60;99.90
25482;DHT22;13395;50.752;4.268;2023-01-26T00:25:47;1.60;99.90
25482;DHT22;13395;50.752;4.268;2023-01-26T00:28:12;1.60;99.90
25482;DHT22;13395;50.752;4.268;2023-01-26T00:30:38;1.70;99.90
25482;DHT22;13395;50.752;4.268;2023-01-26T00:33:04;1.70;99.90
25482;DHT22;13395;50.752;4.268;2023-01-26T00:35:29;1.80;99.90
25482;DHT22;13395;50.752;4.268;2023-01-26T00:37:55;1.70;99.90
25482;DHT22;13395;50.752;4.268;2023-01-26T00:40:20;1.80;99.90
25482;DHT22;13395;50.752;4.268;2023-01-26T00:42:46;1.80;99.90
25482;DHT22;13395;50.752;4.268;2023-01-26T00:45:12;1.80;99.90
25482;DHT22;13395;50.752;4.268;2023-01-26T00:47:37;1.80;99.90
25482;DHT22;13395;50.752;4.268;2023-01-26T00:50:03;1.90;99.90
25482;DHT22;13395;50.752;4.268;2023-01-26T00:52:29;1.90;99.90
25482;DHT22;13395;50.752;4.268;2023-01-26T00:54:54;2.00;99.90
25482;DHT22;13395;50.752;4.268;2023-01-26T00:57:20;2.00;99.90
25482;DHT22;13395;50.752;4.268;2023-01-26T00:59:45;1.90;99.90
25482;DHT22;13395;50.752;4.268;2023-01-26T01:02:11;2.00;99.90
25482;DHT22;13395;50.752;4.268;2023-01-26T01:04:37;2.10;99.90
25482;DHT22;13395;50.752;4.268;2023-01-26T01:07:02;1.90;99.90
25482;DHT22;13395;50.752;4.268;2023-01-26T01:09:28;2.00;99.90
25482;DHT22;13395;50.752;4.268;2023-01-26T01:11:53;2.10;99.90
25482;DHT22;13395;50.752;4.268;2023-01-26T01:14:19;2.20;99.90
25482;DHT22;13395;50.752;4.268;2023-01-26T01:16:45;2.10;99.90
25482;DHT22;13395;50.752;4.268;2023-01-26T01:19:14;2.10;99.90
25482;DHT22;13395;50.752;4.268;2023-01-26T01:21:40;2.10;99.90
25482;DHT22;13395;50.752;4.268;2023-01-26T01:24:06;2.10;99.90
25482;DHT22;13395;50.752;4.268;2023-01-26T01:26:32;2.00;99.90
25482;DHT22;13395;50.752;4.268;2023-01-26T01:28:58;1.90;99.90
25482;DHT22;13395;50.752;4.268;2023-01-26T01:31:24;2.00;99.90
25482;DHT22;13395;50.752;4.268;2023-01-26T01:33:51;2.10;99.90
25482;DHT22;13395;50.752;4.268;2023-01-26T01:36:18;2.10;99.90
25482;DHT22;13395;50.752;4.268;2023-01-26T01:38:44;2.10;99.90
25482;DHT22;13395;50.752;4.268;2023-01-26T01:41:12;2.20;99.90
25482;DHT22;13395;50.752;4.268;2023-01-26T01:43:38;2.20;99.90
25482;DHT22;13395;50.752;4.268;2023-01-26T01:46:37;2.40;99.90
25482;DHT22;13395;50.752;4.268;2023-01-26T01:49:19;2.20;99.90
25482;DHT22;13395;50.752;4.268;2023-01-26T01:51:56;2.20;99.90
25482;DHT22;13395;50.752;4.268;2023-01-26T01:54:29;2.20;99.90
25482;DHT22;13395;50.752;4.268;2023-01-26T01:57:01;2.20;99.90
25482;DHT22;13395;50.752;4.268;2023-01-26T01:59:29;2.10;99.90
25482;DHT22;13395;50.752;4.268;2023-01-26T02:01:55;2.10;99.90
25482;DHT22;13395;50.752;4.268;2023-01-26T02:04:23;2.10;99.90
25482;DHT22;13395;50.752;4.268;2023-01-26T02:06:54;2.10;99.90
25482;DHT22;13395;50.752;4.268;2023-01-26T02:09:27;2.20;99.90
25482;DHT22;13395;50.752;4.268;2023-01-26T02:12:13;2.20;99.90
25482;DHT22;13395;50.752;4.268;2023-01-26T02:14:40;2.30;99.90
25482;DHT22;13395;50.752;4.268;2023-01-26T02:17:06;2.40;99.90
25482;DHT22;13395;50.752;4.268;2023-01-26T02:28:11;2.50;99.90
25482;DHT22;13395;50.752;4.268;2023-01-26T02:30:36;2.50;99.90
25482;DHT22;13395;50.752;4.268;2023-01-26T02:33:02;2.30;99.90
25482;DHT22;13395;50.752;4.268;2023-01-26T02:35:27;2.30;99.90
25482;DHT22;13395;50.752;4.268;2023-01-26T02:37:53;2.20;99.90
25482;DHT22;13395;50.752;4.268;2023-01-26T02:40:42;2.40;99.90
25482;DHT22;13395;50.752;4.268;2023-01-26T02:43:05;2.40;99.90
25482;DHT22;13395;50.752;4.268;2023-01-26T02:45:33;2.30;99.90
25482;DHT22;13395;50.752;4.268;2023-01-26T02:47:58;2.10;99.90
25482;DHT22;13395;50.752;4.268;2023-01-26T02:50:29;2.20;99.90
25482;DHT22;13395;50.752;4.268;2023-01-26T02:52:55;2.20;99.90
25482;DHT22;13395;50.752;4.268;2023-01-26T02:55:21;2.20;99.90
25482;DHT22;13395;50.752;4.268;2023-01-26T02:57:49;2.20;99.90
25482;DHT22;13395;50.752;4.268;2023-01-26T03:00:24;2.30;99.90
25482;DHT22;13395;50.752;4.268;2023-01-26T03:02:52;2.20;99.90
25482;DHT22;13395;50.752;4.268;2023-01-26T03:05:18;2.30;99.90
25482;DHT22;13395;50.752;4.268;2023-01-26T03:07:44;2.40;99.90
25482;DHT22;13395;50.752;4.268;2023-01-26T03:10:12;2.30;99.90
25482;DHT22;13395;50.752;4.268;2023-01-26T03:12:38;2.40;99.90
25482;DHT22;13395;50.752;4.268;2023-01-26T03:15:05;2.50;99.90
25482;DHT22;13395;50.752;4.268;2023-01-26T03:17:50;2.50;99.90
25482;DHT22;13395;50.752;4.268;2023-01-26T03:20:15;2.60;99.90
25482;DHT22;13395;50.752;4.268;2023-01-26T03:23:00;2.70;99.90
25482;DHT22;13395;50.752;4.268;2023-01-26T03:25:44;2.70;99.90
25482;DHT22;13395;50.752;4.268;2023-01-26T03:28:28;2.70;99.90
25482;DHT22;13395;50.752;4.268;2023-01-26T03:30:55;2.70;99.90
25482;DHT22;13395;50.752;4.268;2023-01-26T03:33:22;2.60;99.90
25482;DHT22;13395;50.752;4.268;2023-01-26T03:35:47;2.60;99.90
25482;DHT22;13395;50.752;4.268;2023-01-26T03:38:13;2.60;99.90
25482;DHT22;13395;50.752;4.268;2023-01-26T03:40:38;2.60;99.90
25482;DHT22;13395;50.752;4.268;2023-01-26T03:43:23;2.50;99.90
25482;DHT22;13395;50.752;4.268;2023-01-26T03:46:07;2.60;99.90
25482;DHT22;13395;50.752;4.268;2023-01-26T03:48:51;2.50;99.90
25482;DHT22;13395;50.752;4.268;2023-01-26T03:51:36;2.50;99.90
25482;DHT22;13395;50.752;4.268;2023-01-26T03:54:20;2.60;99.90
25482;DHT22;13395;50.752;4.268;2023-01-26T03:57:04;2.60;99.90
25482;DHT22;13395;50.752;4.268;2023-01-26T03:59:30;2.60;99.90
25482;DHT22;13395;50.752;4.268;2023-01-26T04:02:08;2.60;99.90
25482;DHT22;13395;50.752;4.268;2023-01-26T04:04:52;2.60;99.90
25482;DHT22;13395;50.752;4.268;2023-01-26T04:07:37;2.50;99.90
25482;DHT22;13395;50.752;4.268;2023-01-26T04:10:22;2.60;99.90
25482;DHT22;13395;50.752;4.268;2023-01-26T04:12:53;2.60;99.90
25482;DHT22;13395;50.752;4.268;2023-01-26T04:15:37;2.60;99.90
25482;DHT22;13395;50.752;4.268;2023-01-26T04:18:21;2.60;99.90
25482;DHT22;13395;50.752;4.268;2023-01-26T04:21:06;2.70;99.90
25482;DHT22;13395;50.752;4.268;2023-01-26T04:23:54;2.60;99.90
25482;DHT22;13395;50.752;4.268;2023-01-26T04:26:25;2.60;99.90
25482;DHT22;13395;50.752;4.268;2023-01-26T04:28:51;2.50;99.90
25482;DHT22;13395;50.752;4.268;2023-01-26T04:31:17;2.60;99.90
25482;DHT22;13395;50.752;4.268;2023-01-26T04:33:42;2.60;99.90
25482;DHT22;13395;50.752;4.268;2023-01-26T04:36:09;2.60;99.90
25482;DHT22;13395;50.752;4.268;2023-01-26T04:38:35;2.60;99.90
25482;DHT22;13395;50.752;4.268;2023-01-26T04:41:01;2.60;99.90
25482;DHT22;13395;50.752;4.268;2023-01-26T04:43:26;2.50;99.90
25482;DHT22;13395;50.752;4.268;2023-01-26T04:46:04;2.50;99.90
25482;DHT22;13395;50.752;4.268;2023-01-26T04:48:30;2.50;99.90
25482;DHT22;13395;50.752;4.268;2023-01-26T04:50:58;2.50;99.90
25482;DHT22;13395;50.752;4.268;2023-01-26T04:53:24;2.60;99.90
25482;DHT22;13395;50.752;4.268;2023-01-26T04:55:50;2.60;99.90
25482;DHT22;13395;50.752;4.268;2023-01-26T04:58:16;2.70;99.90
25482;DHT22;13395;50.752;4.268;2023-01-26T05:00:41;2.60;99.90
25482;DHT22;13395;50.752;4.268;2023-01-26T05:03:07;2.60;99.90
25482;DHT22;13395;50.752;4.268;2023-01-26T05:05:36;2.60;99.90
25482;DHT22;13395;50.752;4.268;2023-01-26T05:08:04;2.60;99.90
25482;DHT22;13395;50.752;4.268;2023-01-26T05:10:30;2.50;99.90
25482;DHT22;13395;50.752;4.268;2023-01-26T05:12:55;2.60;99.90
25482;DHT22;13395;50.752;4.268;2023-01-26T05:15:21;2.70;99.90
25482;DHT22;13395;50.752;4.268;2023-01-26T05:17:47;2.70;99.90
25482;DHT22;13395;50.752;4.268;2023-01-26T05:20:12;2.60;99.90
25482;DHT22;13395;50.752;4.268;2023-01-26T05:22:38;2.60;99.90
25482;DHT22;13395;50.752;4.268;2023-01-26T05:25:04;2.50;99.90
25482;DHT22;13395;50.752;4.268;2023-01-26T05:27:30;2.60;99.90
25482;DHT22;13395;50.752;4.268;2023-01-26T05:29:56;2.70;99.90
25482;DHT22;13395;50.752;4.268;2023-01-26T05:32:26;2.70;99.90
25482;DHT22;13395;50.752;4.268;2023-01-26T05:34:51;2.80;99.90
25482;DHT22;13395;50.752;4.268;2023-01-26T05:37:17;2.70;99.90
25482;DHT22;13395;50.752;4.268;2023-01-26T05:39:43;2.80;99.90
25482;DHT22;13395;50.752;4.268;2023-01-26T05:42:12;2.70;99.90
25482;DHT22;13395;50.752;4.268;2023-01-26T05:44:38;2.70;99.90
25482;DHT22;13395;50.752;4.268;2023-01-26T05:47:04;2.70;99.90
25482;DHT22;13395;50.752;4.268;2023-01-26T05:49:30;2.70;99.90
25482;DHT22;13395;50.752;4.268;2023-01-26T05:51:56;2.70;99.90
25482;DHT22;13395;50.752;4.268;2023-01-26T05:54:21;2.80;99.90
25482;DHT22;13395;50.752;4.268;2023-01-26T05:56:47;2.80;99.90
25482;DHT22;13395;50.752;4.268;2023-01-26T05:59:14;2.80;99.90
25482;DHT22;13395;50.752;4.268;2023-01-26T06:01:39;2.70;99.90
25482;DHT22;13395;50.752;4.268;2023-01-26T06:04:05;2.80;99.90
25482;DHT22;13395;50.752;4.268;2023-01-26T06:06:31;2.70;99.90
25482;DHT22;13395;50.752;4.268;2023-01-26T06:08:58;2.70;99.90
25482;DHT22;13395;50.752;4.268;2023-01-26T06:11:24;2.70;99.90
25482;DHT22;13395;50.752;4.268;2023-01-26T06:13:56;2.70;99.90
25482;DHT22;13395;50.752;4.268;2023-01-26T06:16:22;2.80;99.90
25482;DHT22;13395;50.752;4.268;2023-01-26T06:18:48;2.80;99.90
25482;DHT22;13395;50.752;4.268;2023-01-26T06:21:14;2.90;99.90
25482;DHT22;13395;50.752;4.268;2023-01-26T06:23:40;2.90;99.90
25482;DHT22;13395;50.752;4.268;2023-01-26T06:26:05;3.00;99.90
25482;DHT22;13395;50.752;4.268;2023-01-26T06:28:31;2.90;99.90
25482;DHT22;13395;50.752;4.268;2023-01-26T06:31:01;2.90;99.90
25482;DHT22;13395;50.752;4.268;2023-01-26T06:33:27;3.00;99.90
25482;DHT22;13395;50.752;4.268;2023-01-26T06:35:55;3.10;99.90
25482;DHT22;13395;50.752;4.268;2023-01-26T06:38:23;3.00;99.90
25482;DHT22;13395;50.752;4.268;2023-01-26T06:40:49;3.00;99.90
25482;DHT22;13395;50.752;4.268;2023-01-26T06:43:15;3.00;99.90
25482;DHT22;13395;50.752;4.268;2023-01-26T06:45:41;3.10;99.90
25482;DHT22;13395;50.752;4.268;2023-01-26T06:48:07;3.20;99.90
25482;DHT22;13395;50.752;4.268;2023-01-26T06:50:35;3.10;99.90
25482;DHT22;13395;50.752;4.268;2023-01-26T06:53:03;3.00;99.90
25482;DHT22;13395;50.752;4.268;2023-01-26T06:55:51;3.00;99.90
25482;DHT22;13395;50.752;4.268;2023-01-26T06:58:17;3.00;99.90
25482;DHT22;13395;50.752;4.268;2023-01-26T07:00:45;3.00;99.90
25482;DHT22;13395;50.752;4.268;2023-01-26T07:03:10;3.10;99.90
25482;DHT22;13395;50.752;4.268;2023-01-26T07:05:39;3.20;99.90
25482;DHT22;13395;50.752;4.268;2023-01-26T07:08:04;3.20;99.90
25482;DHT22;13395;50.752;4.268;2023-01-26T07:10:35;3.20;99.90
25482;DHT22;13395;50.752;4.268;2023-01-26T07:13:03;3.20;99.90
25482;DHT22;13395;50.752;4.268;2023-01-26T07:15:29;3.20;99.90
25482;DHT22;13395;50.752;4.268;2023-01-26T07:17:56;3.20;99.90
25482;DHT22;13395;50.752;4.268;2023-01-26T07:20:22;3.20;99.90
25482;DHT22;13395;50.752;4.268;2023-01-26T07:22:47;3.20;99.90
25482;DHT22;13395;50.752;4.268;2023-01-26T07:25:14;3.20;99.90
25482;DHT22;13395;50.752;4.268;2023-01-26T07:27:40;3.20;99.90
25482;DHT22;13395;50.752;4.268;2023-01-26T07:30:07;3.30;99.90
25482;DHT22;13395;50.752;4.268;2023-01-26T07:32:32;3.30;99.90
25482;DHT22;13395;50.752;4.268;2023-01-26T07:34:58;3.10;99.90
25482;DHT22;13395;50.752;4.268;2023-01-26T07:37:27;3.20;99.90
25482;DHT22;13395;50.752;4.268;2023-01-26T07:39:53;3.20;99.90
25482;DHT22;13395;50.752;4.268;2023-01-26T07:42:19;3.20;99.90
25482;DHT22;13395;50.752;4.268;2023-01-26T07:44:44;3.00;99.90
25482;DHT22;13395;50.752;4.268;2023-01-26T07:47:10;3.10;99.90
25482;DHT22;13395;50.752;4.268;2023-01-26T07:49:36;3.20;99.90
25482;DHT22;13395;50.752;4.268;2023-01-26T07:52:01;3.20;99.90
25482;DHT22;13395;50.752;4.268;2023-01-26T07:54:27;3.20;99.90
25482;DHT22;13395;50.752;4.268;2023-01-26T07:56:53;3.30;99.90
25482;DHT22;13395;50.752;4.268;2023-01-26T07:59:22;3.20;99.90
25482;DHT22;13395;50.752;4.268;2023-01-26T08:01:49;3.20;99.90
25482;DHT22;13395;50.752;4.268;2023-01-26T08:04:15;3.30;99.90
25482;DHT22;13395;50.752;4.268;2023-01-26T08:06:41;3.30;99.90
25482;DHT22;13395;50.752;4.268;2023-01-26T08:09:06;3.40;99.90
25482;DHT22;13395;50.752;4.268;2023-01-26T08:11:33;3.30;99.90
25482;DHT22;13395;50.752;4.268;2023-01-26T08:13:58;3.40;99.90
25482;DHT22;13395;50.752;4.268;2023-01-26T08:16:24;3.30;99.90
25482;DHT22;13395;50.752;4.268;2023-01-26T08:18:54;3.30;99.90
25482;DHT22;13395;50.752;4.268;2023-01-26T08:21:22;3.40;99.90
25482;DHT22;13395;50.752;4.268;2023-01-26T08:23:51;3.40;99.90
25482;DHT22;13395;50.752;4.268;2023-01-26T08:26:18;3.40;99.90
25482;DHT22;13395;50.752;4.268;2023-01-26T08:28:44;3.50;99.90
25482;DHT22;13395;50.752;4.268;2023-01-26T08:31:13;3.60;99.90
25482;DHT22;13395;50.752;4.268;2023-01-26T08:33:43;3.60;99.90
25482;DHT22;13395;50.752;4.268;2023-01-26T08:36:11;3.60;99.90
25482;DHT22;13395;50.752;4.268;2023-01-26T08:38:37;3.60;99.90
25482;DHT22;13395;50.752;4.268;2023-01-26T08:41:03;3.60;99.90
25482;DHT22;13395;50.752;4.268;2023-01-26T08:43:32;3.30;99.90
25482;DHT22;13395;50.752;4.268;2023-01-26T08:46:05;3.20;99.90
25482;DHT22;13395;50.752;4.268;2023-01-26T08:48:36;3.00;99.90
25482;DHT22;13395;50.752;4.268;2023-01-26T08:51:03;3.30;99.90
25482;DHT22;13395;50.752;4.268;2023-01-26T08:53:37;3.20;99.90
25482;DHT22;13395;50.752;4.268;2023-01-26T08:56:07;3.30;99.90
25482;DHT22;13395;50.752;4.268;2023-01-26T08:58:33;3.50;99.90
25482;DHT22;13395;50.752;4.268;2023-01-26T09:01:09;3.60;99.90
25482;DHT22;13395;50.752;4.268;2023-01-26T09:03:35;3.60;99.90
25482;DHT22;13395;50.752;4.268;2023-01-26T09:06:05;3.70;99.90
25482;DHT22;13395;50.752;4.268;2023-01-26T09:08:32;3.80;99.90
25482;DHT22;13395;50.752;4.268;2023-01-26T09:11:00;3.90;99.90
25482;DHT22;13395;50.752;4.268;2023-01-26T09:13:26;3.90;99.90
25482;DHT22;13395;50.752;4.268;2023-01-26T09:15:52;3.90;99.90
25482;DHT22;13395;50.752;4.268;2023-01-26T09:18:18;3.90;99.90
25482;DHT22;13395;50.752;4.268;2023-01-26T09:20:44;3.90;99.90
25482;DHT22;13395;50.752;4.268;2023-01-26T09:23:09;4.00;99.90
25482;DHT22;13395;50.752;4.268;2023-01-26T09:25:37;3.90;99.90
25482;DHT22;13395;50.752;4.268;2023-01-26T09:28:04;3.90;99.90
25482;DHT22;13395;50.752;4.268;2023-01-26T09:30:30;4.00;99.90
25482;DHT22;13395;50.752;4.268;2023-01-26T09:33:01;4.20;99.90
25482;DHT22;13395;50.752;4.268;2023-01-26T09:35:27;4.20;99.90
25482;DHT22;13395;50.752;4.268;2023-01-26T09:37:53;4.10;99.90
25482;DHT22;13395;50.752;4.268;2023-01-26T09:40:36;4.10;99.90
25482;DHT22;13395;50.752;4.268;2023-01-26T09:43:43;4.10;99.90
25482;DHT22;13395;50.752;4.268;2023-01-26T09:46:37;4.30;99.90
25482;DHT22;13395;50.752;4.268;2023-01-26T09:49:09;4.40;99.90
25482;DHT22;13395;50.752;4.268;2023-01-26T09:51:40;4.40;99.90
25482;DHT22;13395;50.752;4.268;2023-01-26T09:54:24;4.30;99.90
25482;DHT22;13395;50.752;4.268;2023-01-26T09:56:51;4.40;99.90
25482;DHT22;13395;50.752;4.268;2023-01-26T09:59:43;4.60;99.90
25482;DHT22;13395;50.752;4.268;2023-01-26T10:02:22;4.70;99.90
25482;DHT22;13395;50.752;4.268;2023-01-26T10:04:52;4.70;99.90
25482;DHT22;13395;50.752;4.268;2023-01-26T10:07:20;4.80;99.90
25482;DHT22;13395;50.752;4.268;2023-01-26T10:09:48;5.00;99.90
25482;DHT22;13395;50.752;4.268;2023-01-26T10:12:20;5.00;99.90
25482;DHT22;13395;50.752;4.268;2023-01-26T10:17:42;5.10;99.90
25482;DHT22;13395;50.752;4.268;2023-01-26T10:22:56;4.90;99.90
25482;DHT22;13395;50.752;4.268;2023-01-26T10:25:34;5.00;99.90
25482;DHT22;13395;50.752;4.268;2023-01-26T10:28:29;5.00;99.90
25482;DHT22;13395;50.752;4.268;2023-01-26T10:30:58;5.10;99.90
25482;DHT22;13395;50.752;4.268;2023-01-26T10:33:35;5.00;99.90
25482;DHT22;13395;50.752;4.268;2023-01-26T10:36:02;5.00;99.90
25482;DHT22;13395;50.752;4.268;2023-01-26T10:41:02;4.90;99.90
25482;DHT22;13395;50.752;4.268;2023-01-26T10:43:33;5.00;99.90
25482;DHT22;13395;50.752;4.268;2023-01-26T10:46:00;5.10;99.90
25482;DHT22;13395;50.752;4.268;2023-01-26T10:48:27;5.20;99.90
25482;DHT22;13395;50.752;4.268;2023-01-26T10:50:54;5.20;99.90
25482;DHT22;13395;50.752;4.268;2023-01-26T10:53:25;5.20;99.90
25482;DHT22;13395;50.752;4.268;2023-01-26T10:56:08;5.20;99.90
25482;DHT22;13395;50.752;4.268;2023-01-26T11:01:14;5.20;99.90
25482;DHT22;13395;50.752;4.268;2023-01-26T11:03:59;5.20;99.90
25482;DHT22;13395;50.752;4.268;2023-01-26T11:06:29;5.40;99.90
25482;DHT22;13395;50.752;4.268;2023-01-26T11:09:17;5.40;99.90
25482;DHT22;13395;50.752;4.268;2023-01-26T11:12:01;5.40;99.90
25482;DHT22;13395;50.752;4.268;2023-01-26T11:14:31;5.50;99.90
25482;DHT22;13395;50.752;4.268;2023-01-26T11:19:50;5.20;99.90
25482;DHT22;13395;50.752;4.268;2023-01-26T11:22:36;5.40;99.90
25482;DHT22;13395;50.752;4.268;2023-01-26T11:25:24;5.50;99.90
25482;DHT22;13395;50.752;4.268;2023-01-26T11:28:00;5.50;99.90
25482;DHT22;13395;50.752;4.268;2023-01-26T11:33:58;5.50;99.90
25482;DHT22;13395;50.752;4.268;2023-01-26T11:36:14;5.60;99.90
25482;DHT22;13395;50.752;4.268;2023-01-26T11:39:02;5.80;99.90
25482;DHT22;13395;50.752;4.268;2023-01-26T12:00:56;5.90;99.90
25482;DHT22;13395;50.752;4.268;2023-01-26T12:03:45;5.90;99.90
25482;DHT22;13395;50.752;4.268;2023-01-26T12:06:36;5.70;99.90
25482;DHT22;13395;50.752;4.268;2023-01-26T12:11:41;6.00;99.90
25482;DHT22;13395;50.752;4.268;2023-01-26T12:14:26;6.00;99.90
25482;DHT22;13395;50.752;4.268;2023-01-26T12:22:51;5.90;99.90
25482;DHT22;13395;50.752;4.268;2023-01-26T12:25:34;6.00;99.90
25482;DHT22;13395;50.752;4.268;2023-01-26T12:28:03;6.10;99.90
25482;DHT22;13395;50.752;4.268;2023-01-26T12:30:42;6.10;99.90
25482;DHT22;13395;50.752;4.268;2023-01-26T12:33:09;6.10;99.90
25482;DHT22;13395;50.752;4.268;2023-01-26T12:36:23;6.10;99.90
25482;DHT22;13395;50.752;4.268;2023-01-26T12:42:02;6.20;99.90
25482;DHT22;13395;50.752;4.268;2023-01-26T12:44:36;6.30;99.90
25482;DHT22;13395;50.752;4.268;2023-01-26T12:50:28;6.30;99.90
25482;DHT22;13395;50.752;4.268;2023-01-26T12:53:08;6.30;99.90
25482;DHT22;13395;50.752;4.268;2023-01-26T12:55:57;6.50;99.90
25482;DHT22;13395;50.752;4.268;2023-01-26T12:58:41;6.70;99.90
25482;DHT22;13395;50.752;4.268;2023-01-26T13:01:14;6.90;99.90
25482;DHT22;13395;50.752;4.268;2023-01-26T13:03:54;6.90;99.90
25482;DHT22;13395;50.752;4.268;2023-01-26T13:06:25;7.20;99.90
25482;DHT22;13395;50.752;4.268;2023-01-26T13:11:42;7.60;99.90
25482;DHT22;13395;50.752;4.268;2023-01-26T13:16:49;8.30;99.90
25482;DHT22;13395;50.752;4.268;2023-01-26T13:19:35;8.90;99.90
25482;DHT22;13395;50.752;4.268;2023-01-26T13:22:01;10.00;99.90
25482;DHT22;13395;50.752;4.268;2023-01-26T13:26:55;10.40;99.90
25482;DHT22;13395;50.752;4.268;2023-01-26T13:31:54;10.00;99.90
25482;DHT22;13395;50.752;4.268;2023-01-26T13:39:43;9.90;99.90
25482;DHT22;13395;50.752;4.268;2023-01-26T13:42:59;9.70;99.90
25482;DHT22;13395;50.752;4.268;2023-01-26T13:45:15;9.50;99.90
25482;DHT22;13395;50.752;4.268;2023-01-26T13:47:43;9.30;99.90
25482;DHT22;13395;50.752;4.268;2023-01-26T13:50:31;9.20;99.90
25482;DHT22;13395;50.752;4.268;2023-01-26T13:52:57;9.20;99.90
25482;DHT22;13395;50.752;4.268;2023-01-26T13:55:33;9.10;99.90
25482;DHT22;13395;50.752;4.268;2023-01-26T13:58:17;9.00;99.90
25482;DHT22;13395;50.752;4.268;2023-01-26T14:01:09;8.80;99.90
25482;DHT22;13395;50.752;4.268;2023-01-26T14:03:36;8.60;99.90
25482;DHT22;13395;50.752;4.268;2023-01-26T14:06:09;8.40;99.90
25482;DHT22;13395;50.752;4.268;2023-01-26T14:08:36;8.20;99.90
25482;DHT22;13395;50.752;4.268;2023-01-26T14:11:04;8.00;99.90
25482;DHT22;13395;50.752;4.268;2023-01-26T14:13:39;7.90;99.90
25482;DHT22;13395;50.752;4.268;2023-01-26T14:16:06;7.90;99.90
25482;DHT22;13395;50.752;4.268;2023-01-26T14:18:32;8.00;99.90
25482;DHT22;13395;50.752;4.268;2023-01-26T14:21:15;7.80;99.90
25482;DHT22;13395;50.752;4.268;2023-01-26T14:23:42;7.80;99.90
25482;DHT22;13395;50.752;4.268;2023-01-26T14:26:19;7.80;99.90
25482;DHT22;13395;50.752;4.268;2023-01-26T14:28:45;7.80;99.90
25482;DHT22;13395;50.752;4.268;2023-01-26T14:31:15;7.80;99.90
25482;DHT22;13395;50.752;4.268;2023-01-26T14:33:43;7.80;99.90
25482;DHT22;13395;50.752;4.268;2023-01-26T14:36:16;7.80;99.90
25482;DHT22;13395;50.752;4.268;2023-01-26T14:38:47;7.70;99.90
25482;DHT22;13395;50.752;4.268;2023-01-26T14:41:30;7.90;99.90
25482;DHT22;13395;50.752;4.268;2023-01-26T14:43:58;7.80;99.90
25482;DHT22;13395;50.752;4.268;2023-01-26T14:46:50;7.70;99.90
25482;DHT22;13395;50.752;4.268;2023-01-26T14:49:50;7.60;99.90
25482;DHT22;13395;50.752;4.268;2023-01-26T14:52:24;7.70;99.90
25482;DHT22;13395;50.752;4.268;2023-01-26T14:54:52;7.70;99.90
25482;DHT22;13395;50.752;4.268;2023-01-26T14:57:24;7.70;99.90
25482;DHT22;13395;50.752;4.268;2023-01-26T14:59:56;7.80;99.90
25482;DHT22;13395;50.752;4.268;2023-01-26T15:02:37;7.80;99.90
25482;DHT22;13395;50.752;4.268;2023-01-26T15:05:12;7.90;99.90
25482;DHT22;13395;50.752;4.268;2023-01-26T15:07:47;7.80;99.90
25482;DHT22;13395;50.752;4.268;2023-01-26T15:15:43;7.80;99.90
25482;DHT22;13395;50.752;4.268;2023-01-26T15:18:18;7.80;99.90
25482;DHT22;13395;50.752;4.268;2023-01-26T15:20:57;7.70;99.90
25482;DHT22;13395;50.752;4.268;2023-01-26T15:23:32;7.60;99.90
25482;DHT22;13395;50.752;4.268;2023-01-26T15:26:12;7.60;99.90
25482;DHT22;13395;50.752;4.268;2023-01-26T15:28:38;7.70;99.90
25482;DHT22;13395;50.752;4.268;2023-01-26T15:31:04;7.80;99.90
25482;DHT22;13395;50.752;4.268;2023-01-26T15:34:00;7.90;99.90
25482;DHT22;13395;50.752;4.268;2023-01-26T15:39:14;7.70;99.90
25482;DHT22;13395;50.752;4.268;2023-01-26T15:41:41;7.80;99.90
25482;DHT22;13395;50.752;4.268;2023-01-26T15:44:27;7.70;99.90
25482;DHT22;13395;50.752;4.268;2023-01-26T15:46:53;7.60;99.90
25482;DHT22;13395;50.752;4.268;2023-01-26T15:49:20;7.50;99.90
25482;DHT22;13395;50.752;4.268;2023-01-26T15:51:48;7.60;99.90
25482;DHT22;13395;50.752;4.268;2023-01-26T15:54:13;7.60;99.90
25482;DHT22;13395;50.752;4.268;2023-01-26T15:56:39;7.80;99.90
25482;DHT22;13395;50.752;4.268;2023-01-26T15:59:04;7.80;99.90
25482;DHT22;13395;50.752;4.268;2023-01-26T16:01:30;7.80;99.90
25482;DHT22;13395;50.752;4.268;2023-01-26T16:03:56;8.00;99.90
25482;DHT22;13395;50.752;4.268;2023-01-26T16:06:23;8.10;99.90
25482;DHT22;13395;50.752;4.268;2023-01-26T16:08:50;8.00;99.90
25482;DHT22;13395;50.752;4.268;2023-01-26T16:11:17;7.90;99.90
25482;DHT22;13395;50.752;4.268;2023-01-26T16:13:42;7.80;99.90
25482;DHT22;13395;50.752;4.268;2023-01-26T16:16:10;7.80;99.90
25482;DHT22;13395;50.752;4.268;2023-01-26T16:18:36;7.80;99.90
25482;DHT22;13395;50.752;4.268;2023-01-26T16:21:20;7.80;99.90
25482;DHT22;13395;50.752;4.268;2023-01-26T16:23:46;7.90;99.90
25482;DHT22;13395;50.752;4.268;2023-01-26T16:26:14;7.90;99.90
25482;DHT22;13395;50.752;4.268;2023-01-26T16:28:40;7.90;99.90
25482;DHT22;13395;50.752;4.268;2023-01-26T16:31:13;7.90;99.90
25482;DHT22;13395;50.752;4.268;2023-01-26T16:33:39;7.90;99.90
25482;DHT22;13395;50.752;4.268;2023-01-26T16:36:07;7.80;99.90
25482;DHT22;13395;50.752;4.268;2023-01-26T16:38:33;7.70;99.90
25482;DHT22;13395;50.752;4.268;2023-01-26T16:40:58;7.80;99.90
25482;DHT22;13395;50.752;4.268;2023-01-26T16:43:25;7.80;99.90
25482;DHT22;13395;50.752;4.268;2023-01-26T16:45:54;7.60;99.90
25482;DHT22;13395;50.752;4.268;2023-01-26T16:48:21;7.50;99.90
25482;DHT22;13395;50.752;4.268;2023-01-26T16:50:50;7.50;99.90
25482;DHT22;13395;50.752;4.268;2023-01-26T16:53:31;7.50;99.90
25482;DHT22;13395;50.752;4.268;2023-01-26T16:56:00;7.50;99.90
25482;DHT22;13395;50.752;4.268;2023-01-26T16:58:26;7.40;99.90
25482;DHT22;13395;50.752;4.268;2023-01-26T17:00:53;7.60;99.90
25482;DHT22;13395;50.752;4.268;2023-01-26T17:03:19;7.60;99.90
25482;DHT22;13395;50.752;4.268;2023-01-26T17:05:45;7.60;99.90
25482;DHT22;13395;50.752;4.268;2023-01-26T17:08:10;7.60;99.90
25482;DHT22;13395;50.752;4.268;2023-01-26T17:10:36;7.70;99.90
25482;DHT22;13395;50.752;4.268;2023-01-26T17:13:03;7.60;99.90
25482;DHT22;13395;50.752;4.268;2023-01-26T17:15:29;7.70;99.90
25482;DHT22;13395;50.752;4.268;2023-01-26T17:17:55;7.70;99.90
25482;DHT22;13395;50.752;4.268;2023-01-26T17:20:22;7.70;99.90
25482;DHT22;13395;50.752;4.268;2023-01-26T17:22:48;7.70;99.90
25482;DHT22;13395;50.752;4.268;2023-01-26T17:25:15;7.70;99.90
25482;DHT22;13395;50.752;4.268;2023-01-26T17:27:40;7.70;99.90
25482;DHT22;13395;50.752;4.268;2023-01-26T17:30:07;7.80;99.90
25482;DHT22;13395;50.752;4.268;2023-01-26T17:32:33;7.80;99.90